Time;durP1;ratioP1;P1;durP2;ratioP2;P2;SDS_P1;SDS_P2;PMS_P1;PMS_P2;Temp;Humidity;BMP_temperature;BMP_pressure;BME280_temperature;BME280_humidity;BME280_pressure;Samples;Min_cycle;Max_cycle;Signal;HPM_P1;HPM_P2
2023/04/02 00:01:30;;;;;;;13.38;12.30;;;;;;;6.29;100.00;100980.22;4932238;29;20028;-86
2023/04/02 00:04:25;;;;;;;13.75;12.55;;;;;;;6.27;100.00;100987.28;4931523;29;20039;-86
2023/04/02 00:07:32;;;;;;;14.25;13.05;;;;;;;6.31;100.00;100993.19;4930689;29;20031;-86
2023/04/02 00:10:04;;;;;;;14.68;13.38;;;;;;;6.23;100.00;100991.00;4897791;29;20036;-86
2023/04/02 00:12:29;;;;;;;13.30;12.20;;;;;;;6.23;100.00;101001.44;4929271;29;20457;-86
2023/04/02 00:14:57;;;;;;;12.27;11.27;;;;;;;6.21;100.00;101000.69;4925478;29;20124;-86
2023/04/02 00:17:29;;;;;;;12.93;11.90;;;;;;;6.21;100.00;101000.69;4910919;29;20035;-85
2023/04/02 00:20:08;;;;;;;13.93;12.83;;;;;;;6.21;100.00;101013.75;4912073;29;20164;-87
2023/04/02 00:22:48;;;;;;;15.27;13.95;;;;;;;6.23;100.00;101008.44;4942634;29;20435;-87
2023/04/02 00:25:16;;;;;;;15.88;14.45;;;;;;;6.19;100.00;101015.59;4936441;29;20114;-87
2023/04/02 00:27:45;;;;;;;16.65;15.18;;;;;;;6.22;100.00;101018.03;4931623;29;20040;-87
2023/04/02 00:30:17;;;;;;;16.08;14.57;;;;;;;6.16;100.00;101020.97;4931896;29;20036;-87
2023/04/02 00:32:55;;;;;;;16.20;14.80;;;;;;;6.15;100.00;101018.47;4934677;28;20031;-87
2023/04/02 00:35:25;;;;;;;16.23;14.80;;;;;;;6.09;100.00;101032.69;4913828;29;20044;-87
2023/04/02 00:38:01;;;;;;;15.05;13.85;;;;;;;6.07;100.00;101034.53;4946855;28;20039;-87
2023/04/02 00:40:33;;;;;;;15.35;14.10;;;;;;;6.05;100.00;101039.00;4948918;29;20035;-87
2023/04/02 00:43:03;;;;;;;15.48;14.18;;;;;;;6.04;100.00;101037.31;4933503;29;20070;-87
2023/04/02 00:45:49;;;;;;;15.18;13.90;;;;;;;5.97;100.00;101046.34;4928649;29;20039;-87
2023/04/02 00:48:53;;;;;;;15.43;14.13;;;;;;;5.98;100.00;101053.28;4931841;29;20074;-85
2023/04/02 00:51:29;;;;;;;15.55;14.15;;;;;;;5.91;100.00;101057.97;4923670;29;20071;-85
2023/04/02 00:54:08;;;;;;;15.25;13.95;;;;;;;5.89;100.00;101053.72;4914950;29;20119;-87
2023/04/02 00:57:01;;;;;;;14.93;13.63;;;;;;;5.90;100.00;101065.88;4925590;29;20100;-87
2023/04/02 01:00:01;;;;;;;15.30;13.93;;;;;;;5.92;100.00;101062.28;4937781;28;20098;-87
2023/04/02 01:02:37;;;;;;;15.57;14.27;;;;;;;5.89;100.00;101069.38;4947442;29;20489;-87
2023/04/02 01:05:24;;;;;;;16.30;14.70;;;;;;;5.90;100.00;101081.56;4928492;29;20039;-87
2023/04/02 01:08:36;;;;;;;16.38;14.95;;;;;;;5.88;100.00;101083.38;4919768;29;20043;-87
2023/04/02 01:11:28;;;;;;;15.75;14.35;;;;;;;5.86;100.00;101090.44;4927951;29;20055;-87
2023/04/02 01:14:11;;;;;;;16.48;15.07;;;;;;;5.86;100.00;101090.44;4950670;29;20036;-87
2023/04/02 01:17:04;;;;;;;16.15;14.85;;;;;;;5.85;100.00;101089.59;4921588;29;20039;-87
2023/04/02 01:20:16;;;;;;;17.27;15.57;;;;;;;5.84;100.00;101107.94;4944125;29;20047;-87
2023/04/02 01:22:57;;;;;;;16.88;15.38;;;;;;;5.80;100.00;101101.19;4931842;29;20047;-87
2023/04/02 01:26:01;;;;;;;16.85;15.30;;;;;;;5.77;100.00;101102.19;4928480;29;20056;-87
2023/04/02 01:29:04;;;;;;;16.17;14.77;;;;;;;5.79;100.00;101109.94;4873859;29;20052;-86
2023/04/02 01:31:50;;;;;;;16.48;14.98;;;;;;;5.74;100.00;101114.56;4874499;29;20040;-86
2023/04/02 01:34:32;;;;;;;16.00;14.60;;;;;;;5.73;100.00;101118.09;4891145;29;20036;-86
2023/04/02 01:37:23;;;;;;;16.73;15.23;;;;;;;5.75;100.00;101124.06;4854343;29;20128;-87
2023/04/02 01:39:58;;;;;;;16.00;14.68;;;;;;;5.75;100.00;101118.84;4929413;29;20047;-86
2023/04/02 01:43:00;;;;;;;17.30;15.80;;;;;;;5.78;100.00;101140.44;4941678;29;20043;-87
2023/04/02 01:45:33;;;;;;;17.60;15.80;;;;;;;5.70;100.00;101133.91;4931310;29;20050;-86
2023/04/02 01:48:04;;;;;;;17.92;16.25;;;;;;;5.63;100.00;101143.81;4929592;29;20052;-86
2023/04/02 01:50:38;;;;;;;18.95;17.02;;;;;;;5.61;100.00;101151.72;4946949;28;20040;-86
2023/04/02 01:53:16;;;;;;;17.55;15.82;;;;;;;5.55;100.00;101149.38;4930296;29;20040;-86
2023/04/02 01:55:54;;;;;;;18.05;16.27;;;;;;;5.52;100.00;101165.16;4961905;28;20073;-86
2023/04/02 01:58:28;;;;;;;17.85;16.20;;;;;;;5.52;100.00;101166.94;4949549;29;20035;-87
2023/04/02 02:01:04;;;;;;;17.63;15.90;;;;;;;5.52;100.00;101170.41;4931230;29;20050;-86
2023/04/02 02:03:37;;;;;;;17.27;15.68;;;;;;;5.45;100.00;101166.38;4929937;29;20123;-86
2023/04/02 02:06:07;;;;;;;15.50;14.10;;;;;;;5.48;100.00;101174.06;4950960;29;20057;-86
2023/04/02 02:09:04;;;;;;;15.18;13.77;;;;;;;5.47;100.00;101176.75;4934143;29;20040;-86
2023/04/02 02:11:32;;;;;;;13.65;12.45;;;;;;;5.45;100.00;101195.09;4918530;29;20040;-86
2023/04/02 02:14:00;;;;;;;14.35;12.98;;;;;;;5.42;100.00;101190.03;4919663;29;20035;-85
2023/04/02 02:16:40;;;;;;;13.45;12.15;;;;;;;5.44;100.00;101197.78;4923333;29;20036;-86
2023/04/02 02:19:28;;;;;;;11.68;10.57;;;;;;;5.36;100.00;101195.53;4952552;29;20047;-87
2023/04/02 02:22:23;;;;;;;10.70;9.70;;;;;;;5.37;100.00;101202.44;4954396;29;20035;-86
2023/04/02 02:25:02;;;;;;;11.05;9.95;;;;;;;5.35;100.00;101214.72;4902072;29;20052;-86
2023/04/02 02:27:45;;;;;;;10.48;9.48;;;;;;;5.35;100.00;101218.16;4885809;29;20048;-86
2023/04/02 02:30:34;;;;;;;11.00;9.93;;;;;;;5.35;100.00;101219.94;4916009;29;20053;-86
2023/04/02 02:33:25;;;;;;;8.70;8.00;;;;;;;5.33;100.00;101226.97;4933068;29;20040;-86
2023/04/02 02:36:01;;;;;;;7.97;7.28;;;;;;;5.27;100.00;101235.09;4934791;29;20039;-86
2023/04/02 02:38:33;;;;;;;8.50;7.70;;;;;;;5.28;100.00;101239.41;4931623;29;20028;-84
2023/04/02 02:41:09;;;;;;;7.93;7.22;;;;;;;5.23;100.00;101262.25;4917334;29;20047;-84
2023/04/02 02:43:43;;;;;;;7.93;7.22;;;;;;;5.19;100.00;101253.69;4933546;29;20061;-84
2023/04/02 02:46:22;;;;;;;7.72;7.00;;;;;;;5.16;100.00;101260.78;4897950;29;20044;-85
2023/04/02 02:49:04;;;;;;;6.97;6.35;;;;;;;5.16;100.00;101261.66;4939891;29;20046;-84
2023/04/02 02:52:08;;;;;;;7.50;6.90;;;;;;;5.19;100.00;101265.88;4915528;29;20036;-84
2023/04/02 02:54:42;;;;;;;9.68;7.60;;;;;;;5.16;100.00;101269.47;4920384;29;20058;-84
2023/04/02 02:57:28;;;;;;;7.68;7.07;;;;;;;5.18;100.00;101275.47;4933150;29;20094;-84
2023/04/02 03:00:00;;;;;;;8.02;7.30;;;;;;;5.17;100.00;101283.34;4915667;29;20501;-86
2023/04/02 03:02:37;;;;;;;8.43;7.53;;;;;;;5.19;100.00;101281.53;4907743;29;20431;-86
2023/04/02 03:05:25;;;;;;;8.57;7.70;;;;;;;5.19;100.00;101282.38;4909686;29;20056;-84
2023/04/02 03:08:01;;;;;;;8.85;8.05;;;;;;;5.20;100.00;101291.91;4918435;29;20035;-83
2023/04/02 03:10:56;;;;;;;12.27;11.07;;;;;;;5.21;100.00;101287.56;4913701;29;20031;-84
2023/04/02 03:13:28;;;;;;;11.82;10.63;;;;;;;5.18;100.00;101300.69;4923137;29;20035;-84
2023/04/02 03:16:28;;;;;;;12.43;11.18;;;;;;;5.21;100.00;101311.03;4910200;29;20123;-84
2023/04/02 03:19:37;;;;;;;13.48;12.25;;;;;;;5.20;100.00;101324.94;4912545;29;20036;-84
2023/04/02 03:22:25;;;;;;;14.07;12.68;;;;;;;5.15;100.00;101316.47;4921902;29;20893;-84
2023/04/02 03:25:30;;;;;;;13.80;12.50;;;;;;;5.12;100.00;101327.06;4939501;29;20111;-84
2023/04/02 03:28:22;;;;;;;12.52;11.40;;;;;;;5.00;100.00;101333.66;4932266;29;20070;-84
2023/04/02 03:31:20;;;;;;;15.88;12.75;;;;;;;5.02;100.00;101348.31;4930941;29;20038;-84
2023/04/02 03:34:20;;;;;;;13.40;12.10;;;;;;;4.97;100.00;101350.28;4890078;29;20059;-86
2023/04/02 03:36:56;;;;;;;13.38;12.07;;;;;;;4.96;100.00;101359.03;4884094;29;20053;-85
2023/04/02 03:39:47;;;;;;;13.93;12.02;;;;;;;4.98;100.00;101367.63;4890785;29;20065;-85
2023/04/02 03:42:21;;;;;;;13.90;12.48;;;;;;;4.90;100.00;101364.50;4861787;29;20063;-84
2023/04/02 03:45:27;;;;;;;14.00;12.70;;;;;;;4.95;100.00;101380.78;4898613;29;20135;-85
2023/04/02 03:48:26;;;;;;;13.43;12.02;;;;;;;4.89;100.00;101378.44;4911682;29;20047;-85
2023/04/02 03:51:34;;;;;;;12.73;11.52;;;;;;;4.88;100.00;101381.97;4912698;29;20039;-84
2023/04/02 03:54:11;;;;;;;12.40;11.20;;;;;;;4.78;100.00;101398.88;4900556;29;20044;-85
2023/04/02 03:56:57;;;;;;;12.60;11.40;;;;;;;4.71;100.00;101397.44;4912172;29;20036;-84
2023/04/02 03:59:40;;;;;;;12.43;10.93;;;;;;;4.70;100.00;101408.78;4910928;29;20450;-85
2023/04/02 04:02:05;;;;;;;;;;;;;;;4.78;100.00;101408.44;4908890;29;20047;-84
2023/04/02 04:04:40;;;;;;;11.95;10.40;;;;;;;4.61;100.00;101409.16;4910355;29;19914;-85
2023/04/02 04:07:37;;;;;;;13.52;11.43;;;;;;;4.63;100.00;101418.59;4904151;29;20101;-84
2023/04/02 04:10:15;;;;;;;13.82;11.07;;;;;;;4.61;100.00;101419.56;4873162;29;20231;-85
2023/04/02 04:12:54;;;;;;;13.18;11.55;;;;;;;4.60;100.00;101423.94;4898687;29;20123;-85
2023/04/02 04:15:53;;;;;;;14.50;13.07;;;;;;;4.61;100.00;101437.81;4913871;29;20394;-85
2023/04/02 04:18:37;;;;;;;14.23;12.82;;;;;;;4.60;100.00;101446.53;4924125;29;20134;-84
2023/04/02 04:21:38;;;;;;;14.05;12.75;;;;;;;4.60;100.00;101444.78;4925573;29;20075;-85
2023/04/02 04:24:22;;;;;;;15.68;14.00;;;;;;;4.60;100.00;101451.75;4899233;29;20115;-85
2023/04/02 04:27:23;;;;;;;15.88;14.25;;;;;;;4.61;100.00;101453.44;4928305;29;20043;-85
2023/04/02 04:30:17;;;;;;;14.55;13.20;;;;;;;4.60;100.00;101470.00;4912798;29;20052;-85
2023/04/02 04:33:00;;;;;;;14.40;12.90;;;;;;;4.61;100.00;101480.34;4893706;29;20472;-85
2023/04/02 04:35:54;;;;;;;15.80;14.23;;;;;;;4.61;100.00;101488.19;4928490;29;20050;-85
2023/04/02 04:38:48;;;;;;;15.85;13.80;;;;;;;4.62;100.00;101489.88;4891441;29;20048;-85
2023/04/02 04:41:29;;;;;;;14.18;12.80;;;;;;;4.58;100.00;101495.28;4874403;29;20068;-84
2023/04/02 04:44:52;;;;;;;14.52;12.48;;;;;;;4.60;100.00;101503.88;4891981;29;20040;-85
2023/04/02 04:47:32;;;;;;;12.88;11.60;;;;;;;4.56;100.00;101515.34;4816947;29;20054;-84
2023/04/02 04:50:32;;;;;;;12.43;11.13;;;;;;;4.54;100.00;101522.34;4881803;29;20276;-85
2023/04/02 04:53:15;;;;;;;11.80;10.68;;;;;;;4.44;100.00;101519.25;4891964;29;20054;-85
2023/04/02 04:55:54;;;;;;;11.63;10.50;;;;;;;4.44;100.00;101532.28;4911576;29;20068;-85
2023/04/02 04:58:52;;;;;;;12.98;10.55;;;;;;;4.42;100.00;101523.69;4907931;29;20140;-85
2023/04/02 05:01:51;;;;;;;11.55;10.05;;;;;;;4.37;100.00;101530.78;4888127;29;20103;-85
2023/04/02 05:04:35;;;;;;;11.82;9.80;;;;;;;4.36;100.00;101545.56;4888155;29;20045;-85
2023/04/02 05:07:06;;;;;;;10.13;9.13;;;;;;;4.32;100.00;101554.41;4882429;29;20081;-85
2023/04/02 05:09:53;;;;;;;10.00;9.02;;;;;;;4.27;100.00;101553.72;4919548;29;20047;-86
2023/04/02 05:12:59;;;;;;;9.40;8.43;;;;;;;4.26;100.00;101567.66;4928941;29;20038;-85
2023/04/02 05:16:08;;;;;;;11.65;9.48;;;;;;;4.23;100.00;101567.78;4927446;29;20135;-85
2023/04/02 05:19:09;;;;;;;10.52;9.30;;;;;;;4.22;100.00;101576.50;4929084;29;20028;-84
2023/04/02 05:21:57;;;;;;;11.82;10.13;;;;;;;4.20;100.00;101573.09;4926270;29;20050;-85
2023/04/02 05:25:14;;;;;;;10.60;9.50;;;;;;;4.12;100.00;101572.53;4948243;28;20575;-84
2023/04/02 05:27:53;;;;;;;10.80;9.57;;;;;;;4.10;100.00;101587.34;4881354;29;20498;-85
2023/04/02 05:30:27;;;;;;;10.73;9.35;;;;;;;4.07;100.00;101595.28;4874175;29;20437;-84
2023/04/02 05:33:21;;;;;;;9.63;8.73;;;;;;;4.07;100.00;101595.28;4879702;29;20045;-85
2023/04/02 05:35:56;;;;;;;10.00;9.10;;;;;;;4.07;100.00;101600.47;4890718;29;20048;-85
2023/04/02 05:38:31;;;;;;;11.00;9.15;;;;;;;4.08;100.00;101599.56;4887967;29;20049;-85
2023/04/02 05:41:10;;;;;;;9.27;8.32;;;;;;;4.07;100.00;101606.53;4878720;29;20127;-85
2023/04/02 05:43:50;;;;;;;9.02;8.00;;;;;;;4.09;100.00;101611.69;4887797;29;20040;-85
2023/04/02 05:46:37;;;;;;;9.60;8.57;;;;;;;4.09;100.00;101611.69;4900202;29;20041;-85
2023/04/02 05:49:17;;;;;;;9.95;8.45;;;;;;;4.08;100.00;101607.38;4939526;29;20422;-85
2023/04/02 05:51:54;;;;;;;10.57;9.18;;;;;;;4.11;100.00;101628.13;4935090;29;20039;-85
2023/04/02 05:54:45;;;;;;;11.23;9.48;;;;;;;4.13;100.00;101634.13;4933936;29;20485;-84
2023/04/02 05:57:39;;;;;;;11.02;9.32;;;;;;;4.14;100.00;101638.41;4919872;29;20390;-85
2023/04/02 06:00:32;;;;;;;10.20;9.15;;;;;;;4.11;100.00;101643.75;4934042;29;20126;-85
2023/04/02 06:03:05;;;;;;;11.55;10.13;;;;;;;4.12;100.00;101655.84;4915039;29;20272;-85
2023/04/02 06:05:48;;;;;;;12.40;10.48;;;;;;;4.12;100.00;101649.78;4900232;29;20037;-85
2023/04/02 06:08:34;;;;;;;13.18;10.65;;;;;;;4.09;100.00;101658.56;4922015;29;20032;-85
2023/04/02 06:11:44;;;;;;;13.27;11.13;;;;;;;4.16;100.00;101673.06;4898430;29;20096;-85
2023/04/02 06:14:22;;;;;;;12.60;11.30;;;;;;;4.17;100.00;101671.31;4902462;29;20059;-85
2023/04/02 06:16:48;;;;;;;15.48;12.55;;;;;;;4.15;100.00;101673.97;4923027;29;20050;-85
2023/04/02 06:19:28;;;;;;;14.23;12.75;;;;;;;4.12;100.00;101687.09;4933604;29;20072;-85
2023/04/02 06:22:09;;;;;;;14.57;12.88;;;;;;;4.14;100.00;101695.72;4916582;29;20079;-85
2023/04/02 06:24:53;;;;;;;12.02;10.82;;;;;;;4.06;100.00;101708.16;4905203;29;20127;-86
2023/04/02 06:27:26;;;;;;;16.60;12.10;;;;;;;4.05;100.00;101712.50;4900028;29;20135;-85
2023/04/02 06:30:02;;;;;;;14.40;11.50;;;;;;;4.01;100.00;101710.91;4909902;29;20043;-85
2023/04/02 06:32:27;;;;;;;12.20;10.57;;;;;;;3.99;100.00;101717.03;4901683;29;20038;-85
2023/04/02 06:34:59;;;;;;;13.35;10.52;;;;;;;3.95;100.00;101718.03;4925018;29;20119;-85
2023/04/02 06:37:44;;;;;;;14.50;10.93;;;;;;;3.92;100.00;101726.78;4909885;29;20080;-85
2023/04/02 06:40:45;;;;;;;11.93;10.35;;;;;;;3.92;100.00;101744.16;4915965;29;20040;-85
2023/04/02 06:43:38;;;;;;;13.30;10.10;;;;;;;3.89;100.00;101745.13;4894876;29;20044;-85
2023/04/02 06:46:26;;;;;;;15.45;10.35;;;;;;;3.90;100.00;101748.56;4896834;29;20047;-85
2023/04/02 06:49:03;;;;;;;13.57;9.88;;;;;;;3.87;100.00;101754.72;4911606;29;20041;-84
2023/04/02 06:51:38;;;;;;;11.52;9.35;;;;;;;3.92;100.00;101765.00;4912873;29;20033;-85
2023/04/02 06:54:14;;;;;;;12.52;9.20;;;;;;;3.92;100.00;101768.44;4915483;29;20448;-84
2023/04/02 06:56:56;;;;;;;12.30;8.40;;;;;;;3.95;100.00;101783.13;4927337;29;20390;-84
2023/04/02 06:59:25;;;;;;;10.77;8.25;;;;;;;3.88;100.00;101782.47;4930458;29;20130;-85
2023/04/02 07:02:02;;;;;;;10.38;8.00;;;;;;;3.86;100.00;101794.69;4940438;29;20048;-86
2023/04/02 07:04:31;;;;;;;11.70;8.15;;;;;;;3.90;100.00;101791.06;4914959;29;20126;-86
2023/04/02 07:07:00;;;;;;;12.57;7.50;;;;;;;3.93;100.00;101795.34;4912511;29;20081;-86
2023/04/02 07:09:32;;;;;;;8.23;7.20;;;;;;;4.00;100.00;101808.13;4897527;29;20105;-86
2023/04/02 07:12:00;;;;;;;13.10;8.37;;;;;;;4.03;100.00;101817.59;4914793;29;20099;-87
2023/04/02 07:14:26;;;;;;;10.05;6.50;;;;;;;4.03;100.00;101822.81;4901929;29;20028;-88
2023/04/02 07:16:55;;;;;;;9.30;6.10;;;;;;;4.00;100.00;101822.88;4919596;29;20040;-88
2023/04/02 07:19:23;;;;;;;7.60;5.85;;;;;;;4.00;100.00;101833.28;4913715;29;20036;-88
2023/04/02 07:21:49;;;;;;;8.43;5.57;;;;;;;3.98;100.00;101845.50;4875004;29;20047;-87
2023/04/02 07:24:17;;;;;;;10.02;5.97;;;;;;;3.94;100.00;101843.91;4890135;29;20052;-86
2023/04/02 07:27:11;;;;;;;9.07;5.78;;;;;;;3.88;99.78;101851.91;4893061;29;20040;-86
2023/04/02 07:29:44;;;;;;;7.97;5.15;;;;;;;3.86;100.00;101851.09;4891209;29;20036;-87
2023/04/02 07:32:29;;;;;;;9.80;5.15;;;;;;;3.84;100.00;101865.91;4892928;29;20053;-87
2023/04/02 07:34:54;;;;;;;7.75;4.68;;;;;;;3.75;99.36;101864.44;4879420;29;20085;-86
2023/04/02 07:37:22;;;;;;;7.00;4.63;;;;;;;3.66;99.58;101870.75;4893254;29;20043;-87
2023/04/02 07:40:11;;;;;;;8.98;4.68;;;;;;;3.60;99.71;101877.88;4889376;29;20044;-87
2023/04/02 07:42:39;;;;;;;8.85;4.55;;;;;;;3.58;99.35;101888.31;4892641;29;20047;-87
2023/04/02 07:45:08;;;;;;;10.30;5.60;;;;;;;3.55;100.00;101879.75;4891944;29;20044;-87
2023/04/02 07:47:37;;;;;;;9.65;4.53;;;;;;;3.57;99.62;101881.41;4907904;29;20391;-86
2023/04/02 07:50:04;;;;;;;7.70;4.50;;;;;;;3.59;100.00;101869.22;4895377;29;20044;-86
2023/04/02 07:52:45;;;;;;;7.93;4.13;;;;;;;3.63;99.94;101883.88;4904529;29;20036;-87
2023/04/02 07:55:25;;;;;;;10.38;5.00;;;;;;;3.73;100.00;101882.69;4950509;28;20039;-87
2023/04/02 07:58:00;;;;;;;5.82;4.05;;;;;;;3.79;99.77;101886.88;4947463;28;20134;-87
2023/04/02 08:00:27;;;;;;;10.55;4.57;;;;;;;3.82;98.65;101902.41;4934723;29;20031;-85
2023/04/02 08:02:56;;;;;;;5.15;4.00;;;;;;;3.83;98.41;101904.09;4921433;29;20040;-86
2023/04/02 08:05:25;;;;;;;8.13;4.35;;;;;;;3.88;98.04;101902.22;4933994;29;20039;-86
2023/04/02 08:08:13;;;;;;;7.55;4.00;;;;;;;3.91;97.01;101911.69;4922360;29;20079;-87
2023/04/02 08:10:39;;;;;;;7.70;3.85;;;;;;;3.90;97.06;101928.19;4948431;29;20532;-86
2023/04/02 08:13:07;;;;;;;8.70;4.90;;;;;;;3.80;96.04;101925.00;4926346;29;20131;-87
2023/04/02 08:15:36;;;;;;;6.70;3.50;;;;;;;3.76;95.97;101921.66;4932451;29;20544;-86
2023/04/02 08:18:26;;;;;;;8.82;4.05;;;;;;;3.87;97.61;101928.28;4933136;29;20067;-86
2023/04/02 08:21:11;;;;;;;6.75;3.78;;;;;;;3.92;97.27;101936.81;4933334;29;20036;-86
2023/04/02 08:23:57;;;;;;;6.70;3.78;;;;;;;3.98;97.65;101934.03;4915958;29;20078;-87
2023/04/02 08:26:22;;;;;;;7.68;3.38;;;;;;;4.02;96.72;101933.06;4932100;29;20035;-86
2023/04/02 08:28:51;;;;;;;7.53;3.55;;;;;;;4.04;95.27;101955.56;4932426;29;20425;-86
2023/04/02 08:31:20;;;;;;;7.20;4.20;;;;;;;4.00;95.06;101953.06;4919665;29;20482;-85
2023/04/02 08:33:45;;;;;;;9.30;3.70;;;;;;;4.09;96.40;101963.25;4926766;29;20066;-86
2023/04/02 08:36:27;;;;;;;8.05;3.80;;;;;;;4.14;96.19;101979.59;4932935;29;20150;-86
2023/04/02 08:38:59;;;;;;;7.25;3.20;;;;;;;4.01;95.56;101978.25;4900165;29;20043;-85
2023/04/02 08:41:32;;;;;;;7.03;3.35;;;;;;;4.06;95.95;101989.38;4914764;29;20044;-86
2023/04/02 08:44:23;;;;;;;6.07;3.30;;;;;;;4.11;95.57;101990.09;4914361;29;20043;-86
2023/04/02 08:47:01;;;;;;;6.75;3.35;;;;;;;4.08;95.70;101992.78;4865198;29;20047;-86
2023/04/02 08:49:48;;;;;;;8.95;3.58;;;;;;;4.20;96.79;101997.63;4888003;29;20095;-86
2023/04/02 08:52:29;;;;;;;7.05;3.25;;;;;;;4.14;95.28;102005.63;4873369;29;20125;-86
2023/04/02 08:55:03;;;;;;;6.97;3.33;;;;;;;4.09;94.37;102004.91;4873372;29;20392;-86
2023/04/02 08:58:04;;;;;;;6.90;3.25;;;;;;;4.11;95.36;102012.69;4884156;29;20095;-86
2023/04/02 09:00:38;;;;;;;5.30;3.10;;;;;;;4.15;95.90;102020.34;4919232;29;20036;-86
2023/04/02 09:03:11;;;;;;;5.75;3.17;;;;;;;4.14;94.70;102034.28;4923552;29;20046;-85
2023/04/02 09:05:41;;;;;;;7.85;3.00;;;;;;;4.09;93.40;102041.38;4919031;29;20051;-86
2023/04/02 09:08:29;;;;;;;6.28;2.97;;;;;;;4.09;94.37;102038.75;4926183;29;20396;-85
2023/04/02 09:11:13;;;;;;;6.15;2.85;;;;;;;4.17;95.93;102049.81;4949725;29;20444;-86
2023/04/02 09:13:56;;;;;;;6.15;2.65;;;;;;;4.13;94.28;102048.19;4947381;29;20039;-86
2023/04/02 09:16:51;;;;;;;5.40;3.03;;;;;;;4.21;95.89;102053.19;4940047;29;20036;-86
2023/04/02 09:19:32;;;;;;;6.55;3.15;;;;;;;4.15;93.49;102051.63;4900670;29;20524;-86
2023/04/02 09:22:24;;;;;;;5.22;3.17;;;;;;;4.24;93.85;102056.56;4908886;29;20071;-86
2023/04/02 09:25:00;;;;;;;4.70;2.90;;;;;;;4.36;95.02;102060.56;4937709;29;20066;-85
2023/04/02 09:27:32;;;;;;;5.07;2.50;;;;;;;4.33;91.83;102076.28;4927402;29;20190;-86
2023/04/02 09:30:26;;;;;;;6.37;2.93;;;;;;;4.33;92.31;102081.47;4932293;29;20046;-85
2023/04/02 09:33:11;;;;;;;5.70;2.45;;;;;;;4.32;92.38;102091.06;4927534;29;20279;-85
2023/04/02 09:35:57;;;;;;;4.68;2.40;;;;;;;4.30;92.64;102090.25;4915225;29;20035;-86
2023/04/02 09:38:31;;;;;;;6.38;3.00;;;;;;;4.35;93.19;102090.13;4931784;29;20031;-84
2023/04/02 09:41:06;;;;;;;7.28;3.05;;;;;;;4.31;92.87;102094.56;4911067;29;20036;-86
2023/04/02 09:43:45;;;;;;;6.50;2.83;;;;;;;4.31;91.80;102102.38;4931309;29;20079;-85
2023/04/02 09:46:28;;;;;;;5.40;2.83;;;;;;;4.39;93.18;102092.59;4931662;29;20040;-85
2023/04/02 09:49:00;;;;;;;8.13;3.15;;;;;;;4.43;94.06;102101.19;4926017;29;20040;-85
2023/04/02 09:51:35;;;;;;;5.63;3.03;;;;;;;4.47;93.05;102099.34;4911614;29;20040;-85
2023/04/02 09:54:25;;;;;;;7.47;3.00;;;;;;;4.54;93.26;102111.31;4911906;29;20288;-85
2023/04/02 09:57:06;;;;;;;6.68;3.30;;;;;;;4.56;93.79;102109.50;4912347;29;20106;-85
2023/04/02 09:59:31;;;;;;;;;;;;;;;4.73;94.40;102122.91;4924065;29;20039;-85
2023/04/02 10:02:28;;;;;;;5.80;2.70;;;;;;;4.57;92.15;102129.47;4958397;28;19989;-85
2023/04/02 10:05:05;;;;;;;8.85;3.40;;;;;;;4.52;93.32;102133.94;4871047;29;20043;-85
2023/04/02 10:07:40;;;;;;;6.20;3.25;;;;;;;4.52;93.72;102134.81;4910084;29;20043;-85
2023/04/02 10:10:33;;;;;;;7.78;3.40;;;;;;;4.46;93.88;102139.34;4932746;29;20036;-85
2023/04/02 10:13:01;;;;;;;;;;;;;;;4.55;95.30;102139.06;4950168;29;20114;-85
2023/04/02 10:15:34;;;;;;;5.82;3.20;;;;;;;4.40;93.80;102141.22;4948781;29;19915;-85
2023/04/02 10:18:27;;;;;;;7.57;3.25;;;;;;;4.38;94.32;102149.94;4934366;29;20031;-85
2023/04/02 10:20:55;;;;;;;7.45;3.00;;;;;;;4.28;94.18;102145.88;4912219;29;20040;-85
2023/04/02 10:23:32;;;;;;;5.85;2.83;;;;;;;4.33;94.15;102154.44;4919578;29;20036;-85
2023/04/02 10:26:03;;;;;;;6.18;3.40;;;;;;;4.42;95.41;102161.16;4918022;29;20528;-86
2023/04/02 10:29:13;;;;;;;8.30;3.20;;;;;;;4.52;95.09;102157.41;4933989;29;20063;-85
2023/04/02 10:31:47;;;;;;;3.42;2.65;;;;;;;4.60;94.12;102173.69;4885689;29;20052;-85
2023/04/02 10:34:43;;;;;;;5.05;2.63;;;;;;;4.64;93.80;102175.31;4879188;29;20513;-84
2023/04/02 10:37:33;;;;;;;6.78;3.00;;;;;;;4.62;93.64;102177.09;4876653;29;20073;-85
2023/04/02 10:40:24;;;;;;;7.53;2.80;;;;;;;4.54;92.98;102190.34;4884911;29;20037;-85
2023/04/02 10:43:17;;;;;;;6.10;2.83;;;;;;;4.43;92.88;102196.75;4912712;29;20501;-85
2023/04/02 10:46:27;;;;;;;5.60;3.10;;;;;;;4.55;93.20;102197.28;4916364;29;20383;-85
2023/04/02 10:49:33;;;;;;;5.32;2.85;;;;;;;4.60;92.70;102197.13;4930761;29;20028;-85
2023/04/02 10:52:06;;;;;;;6.68;3.05;;;;;;;4.58;91.87;102204.16;4915695;29;20139;-85
2023/04/02 10:54:40;;;;;;;5.78;3.00;;;;;;;4.60;91.35;102199.75;4898610;29;20036;-85
2023/04/02 10:57:30;;;;;;;5.80;3.03;;;;;;;4.69;92.03;102202.09;4918278;29;20040;-85
2023/04/02 11:00:11;;;;;;;5.55;2.92;;;;;;;4.79;93.17;102205.28;4923446;29;20039;-85
2023/04/02 11:03:17;;;;;;;6.55;3.00;;;;;;;4.90;91.03;102208.47;4936798;29;20449;-85
2023/04/02 11:05:52;;;;;;;6.97;3.15;;;;;;;4.89;90.53;102218.06;4939442;29;20511;-85
2023/04/02 11:08:33;;;;;;;7.50;3.55;;;;;;;5.02;90.72;102223.75;4947828;28;20059;-85
2023/04/02 11:11:17;;;;;;;5.32;2.92;;;;;;;5.13;90.69;102226.91;4913770;29;20104;-85
2023/04/02 11:13:59;;;;;;;6.35;3.30;;;;;;;5.16;88.55;102232.03;4924260;29;20047;-85
2023/04/02 11:16:28;;;;;;;5.38;2.75;;;;;;;5.30;90.17;102234.25;4928833;29;20382;-85
2023/04/02 11:19:15;;;;;;;6.53;3.20;;;;;;;5.37;89.20;102246.22;4943394;29;20031;-85
2023/04/02 11:22:06;;;;;;;5.50;2.40;;;;;;;5.35;88.27;102243.66;4938287;29;20047;-85
2023/04/02 11:24:44;;;;;;;5.15;2.63;;;;;;;5.38;87.41;102242.72;4932779;29;20147;-85
2023/04/02 11:27:33;;;;;;;6.63;2.97;;;;;;;5.46;87.56;102250.31;4934401;29;20032;-85
2023/04/02 11:30:28;;;;;;;7.03;3.20;;;;;;;5.59;87.89;102247.25;4926683;29;20856;-85
2023/04/02 11:33:27;;;;;;;5.40;3.10;;;;;;;5.64;86.48;102255.84;4931900;29;20448;-85
2023/04/02 11:35:56;;;;;;;6.57;3.05;;;;;;;5.60;86.12;102251.63;4935396;29;20067;-85
2023/04/02 11:38:46;;;;;;;6.40;2.67;;;;;;;5.59;86.62;102264.69;4923355;29;20484;-84
2023/04/02 11:41:52;;;;;;;7.45;3.40;;;;;;;5.63;87.39;102259.34;4942575;28;20154;-84
2023/04/02 11:44:37;;;;;;;5.82;3.00;;;;;;;5.61;85.18;102261.16;4933040;29;20039;-85
2023/04/02 11:47:28;;;;;;;5.07;2.55;;;;;;;5.68;85.81;102255.75;4929240;29;20036;-85
2023/04/02 11:50:08;;;;;;;6.05;3.00;;;;;;;5.70;85.82;102264.38;4939947;29;20485;-85
2023/04/02 11:52:49;;;;;;;5.40;3.03;;;;;;;5.89;85.91;102273.34;4944166;29;20027;-85
2023/04/02 11:55:37;;;;;;;3.88;2.70;;;;;;;5.92;84.95;102279.34;4954958;28;20039;-85
2023/04/02 11:58:43;;;;;;;4.90;2.90;;;;;;;5.85;85.72;102282.16;4933007;29;20074;-85
2023/04/02 12:01:33;;;;;;;5.50;3.00;;;;;;;5.81;84.83;102291.00;4931531;29;20039;-84
2023/04/02 12:04:20;;;;;;;5.85;3.00;;;;;;;5.88;86.08;102300.34;4934601;29;20040;-84
2023/04/02 12:07:09;;;;;;;4.13;2.70;;;;;;;5.83;84.81;102300.50;4932313;29;20503;-84
2023/04/02 12:10:05;;;;;;;4.90;2.53;;;;;;;5.85;85.54;102313.50;4927029;29;20066;-84
2023/04/02 12:12:57;;;;;;;5.07;2.40;;;;;;;5.74;85.04;102307.78;4920171;29;20111;-84
2023/04/02 12:15:43;;;;;;;7.43;3.05;;;;;;;5.70;84.59;102311.38;4922209;29;20036;-84
2023/04/02 12:18:18;;;;;;;7.18;2.97;;;;;;;5.64;84.01;102313.28;4915107;29;20053;-85
2023/04/02 12:20:57;;;;;;;5.70;2.72;;;;;;;5.61;86.69;102318.59;4925604;29;20499;-85
2023/04/02 12:23:49;;;;;;;5.22;2.58;;;;;;;5.59;85.79;102322.97;4939233;29;20077;-85
2023/04/02 12:26:41;;;;;;;7.07;2.75;;;;;;;5.59;86.88;102327.34;4934554;29;20039;-85
2023/04/02 12:29:29;;;;;;;7.22;3.30;;;;;;;5.55;86.97;102329.19;4916857;29;20407;-85
2023/04/02 12:32:04;;;;;;;7.20;2.95;;;;;;;5.47;83.90;102336.41;4933239;29;20062;-85
2023/04/02 12:34:32;;;;;;;5.30;2.53;;;;;;;5.46;85.35;102339.91;4945814;28;20074;-84